sensor_id;sensor_type;location;lat;lon;timestamp;temperature;humidity
11762;DHT22;5938;47.098;15.474;2022-08-27T00:00:11;17.20;99.90
11762;DHT22;5938;47.098;15.474;2022-08-27T00:04:16;17.20;99.90
11762;DHT22;5938;47.098;15.474;2022-08-27T00:08:20;17.10;99.90
11762;DHT22;5938;47.098;15.474;2022-08-27T00:12:24;17.10;99.90
11762;DHT22;5938;47.098;15.474;2022-08-27T00:16:28;17.10;99.90
11762;DHT22;5938;47.098;15.474;2022-08-27T00:20:32;17.10;99.90
11762;DHT22;5938;47.098;15.474;2022-08-27T00:24:35;17.00;99.90
11762;DHT22;5938;47.098;15.474;2022-08-27T00:28:51;17.00;99.90
11762;DHT22;5938;47.098;15.474;2022-08-27T00:32:54;17.00;99.90
11762;DHT22;5938;47.098;15.474;2022-08-27T00:36:58;16.90;99.90
11762;DHT22;5938;47.098;15.474;2022-08-27T00:41:03;16.90;99.90
11762;DHT22;5938;47.098;15.474;2022-08-27T00:45:09;16.80;99.90
11762;DHT22;5938;47.098;15.474;2022-08-27T00:49:26;16.80;99.90
11762;DHT22;5938;47.098;15.474;2022-08-27T00:53:31;16.80;99.90
11762;DHT22;5938;47.098;15.474;2022-08-27T00:57:37;16.80;99.90
11762;DHT22;5938;47.098;15.474;2022-08-27T01:01:44;16.80;99.90
11762;DHT22;5938;47.098;15.474;2022-08-27T01:06:03;16.80;99.90
11762;DHT22;5938;47.098;15.474;2022-08-27T01:10:11;16.70;99.90
11762;DHT22;5938;47.098;15.474;2022-08-27T01:14:17;16.70;99.90
11762;DHT22;5938;47.098;15.474;2022-08-27T01:18:22;16.70;99.90
11762;DHT22;5938;47.098;15.474;2022-08-27T01:22:32;16.70;99.90
11762;DHT22;5938;47.098;15.474;2022-08-27T01:26:39;16.60;99.90
11762;DHT22;5938;47.098;15.474;2022-08-27T01:30:43;16.60;99.90
11762;DHT22;5938;47.098;15.474;2022-08-27T01:34:47;16.60;99.90
11762;DHT22;5938;47.098;15.474;2022-08-27T01:38:50;16.60;99.90
11762;DHT22;5938;47.098;15.474;2022-08-27T01:42:56;16.50;99.90
11762;DHT22;5938;47.098;15.474;2022-08-27T01:46:59;16.50;99.90
11762;DHT22;5938;47.098;15.474;2022-08-27T01:51:03;16.50;99.90
11762;DHT22;5938;47.098;15.474;2022-08-27T01:55:08;16.50;99.90
11762;DHT22;5938;47.098;15.474;2022-08-27T01:59:13;16.60;99.90
11762;DHT22;5938;47.098;15.474;2022-08-27T02:03:16;16.50;99.90
11762;DHT22;5938;47.098;15.474;2022-08-27T02:07:20;16.40;99.90
11762;DHT22;5938;47.098;15.474;2022-08-27T02:11:23;16.40;99.90
11762;DHT22;5938;47.098;15.474;2022-08-27T02:15:28;16.40;99.90
11762;DHT22;5938;47.098;15.474;2022-08-27T02:19:32;16.40;99.90
11762;DHT22;5938;47.098;15.474;2022-08-27T02:23:36;16.40;99.90
11762;DHT22;5938;47.098;15.474;2022-08-27T02:27:40;16.40;99.90
11762;DHT22;5938;47.098;15.474;2022-08-27T02:31:44;16.30;99.90
11762;DHT22;5938;47.098;15.474;2022-08-27T02:35:48;16.40;99.90
11762;DHT22;5938;47.098;15.474;2022-08-27T02:39:52;16.30;99.90
11762;DHT22;5938;47.098;15.474;2022-08-27T02:43:55;16.30;99.90
11762;DHT22;5938;47.098;15.474;2022-08-27T02:48:04;16.30;99.90
11762;DHT22;5938;47.098;15.474;2022-08-27T02:52:08;16.30;99.90
11762;DHT22;5938;47.098;15.474;2022-08-27T02:56:12;16.30;99.90
11762;DHT22;5938;47.098;15.474;2022-08-27T03:00:24;16.20;99.90
11762;DHT22;5938;47.098;15.474;2022-08-27T03:04:31;16.20;99.90
11762;DHT22;5938;47.098;15.474;2022-08-27T03:08:34;16.10;99.90
11762;DHT22;5938;47.098;15.474;2022-08-27T03:12:54;16.10;99.90
11762;DHT22;5938;47.098;15.474;2022-08-27T03:16:57;16.10;99.90
11762;DHT22;5938;47.098;15.474;2022-08-27T03:21:24;16.10;99.90
11762;DHT22;5938;47.098;15.474;2022-08-27T03:25:27;16.00;99.90
11762;DHT22;5938;47.098;15.474;2022-08-27T03:29:34;16.00;99.90
11762;DHT22;5938;47.098;15.474;2022-08-27T03:33:39;16.00;99.90
11762;DHT22;5938;47.098;15.474;2022-08-27T03:37:44;16.00;99.90
11762;DHT22;5938;47.098;15.474;2022-08-27T03:41:48;15.90;99.90
11762;DHT22;5938;47.098;15.474;2022-08-27T03:45:56;15.90;99.90
11762;DHT22;5938;47.098;15.474;2022-08-27T03:50:04;16.00;99.90
11762;DHT22;5938;47.098;15.474;2022-08-27T03:54:09;15.90;99.90
11762;DHT22;5938;47.098;15.474;2022-08-27T03:58:13;15.90;99.90
11762;DHT22;5938;47.098;15.474;2022-08-27T04:02:16;15.90;99.90
11762;DHT22;5938;47.098;15.474;2022-08-27T04:06:20;15.90;99.90
11762;DHT22;5938;47.098;15.474;2022-08-27T04:10:25;15.80;99.90
11762;DHT22;5938;47.098;15.474;2022-08-27T04:14:35;15.80;99.90
11762;DHT22;5938;47.098;15.474;2022-08-27T04:18:39;15.80;99.90
11762;DHT22;5938;47.098;15.474;2022-08-27T04:22:42;15.90;99.90
11762;DHT22;5938;47.098;15.474;2022-08-27T04:26:47;15.80;99.90
11762;DHT22;5938;47.098;15.474;2022-08-27T04:30:50;15.90;99.90
11762;DHT22;5938;47.098;15.474;2022-08-27T04:34:54;15.80;99.90
11762;DHT22;5938;47.098;15.474;2022-08-27T04:38:57;15.90;99.90
11762;DHT22;5938;47.098;15.474;2022-08-27T04:43:03;15.90;99.90
11762;DHT22;5938;47.098;15.474;2022-08-27T04:47:06;16.00;99.90
11762;DHT22;5938;47.098;15.474;2022-08-27T04:51:09;16.00;99.90
11762;DHT22;5938;47.098;15.474;2022-08-27T04:55:15;16.00;99.90
11762;DHT22;5938;47.098;15.474;2022-08-27T04:59:21;16.10;99.90
11762;DHT22;5938;47.098;15.474;2022-08-27T05:03:24;16.10;99.90
11762;DHT22;5938;47.098;15.474;2022-08-27T05:07:28;16.20;99.90
11762;DHT22;5938;47.098;15.474;2022-08-27T05:11:32;16.30;99.90
11762;DHT22;5938;47.098;15.474;2022-08-27T05:15:38;16.40;99.90
11762;DHT22;5938;47.098;15.474;2022-08-27T05:19:41;16.50;99.90
11762;DHT22;5938;47.098;15.474;2022-08-27T05:23:45;16.60;99.90
11762;DHT22;5938;47.098;15.474;2022-08-27T05:27:49;16.70;99.90
11762;DHT22;5938;47.098;15.474;2022-08-27T05:31:55;16.80;99.90
11762;DHT22;5938;47.098;15.474;2022-08-27T05:35:59;16.90;99.90
11762;DHT22;5938;47.098;15.474;2022-08-27T05:40:04;17.00;99.90
11762;DHT22;5938;47.098;15.474;2022-08-27T05:44:09;17.20;99.90
11762;DHT22;5938;47.098;15.474;2022-08-27T05:48:35;17.30;99.90
11762;DHT22;5938;47.098;15.474;2022-08-27T05:52:39;17.50;99.90
11762;DHT22;5938;47.098;15.474;2022-08-27T05:56:42;17.60;99.90
11762;DHT22;5938;47.098;15.474;2022-08-27T06:00:45;17.80;99.90
11762;DHT22;5938;47.098;15.474;2022-08-27T06:05:12;18.00;99.90
11762;DHT22;5938;47.098;15.474;2022-08-27T06:09:17;18.20;99.90
11762;DHT22;5938;47.098;15.474;2022-08-27T06:13:21;18.30;99.90
11762;DHT22;5938;47.098;15.474;2022-08-27T06:17:25;18.50;99.90
11762;DHT22;5938;47.098;15.474;2022-08-27T06:21:30;18.70;99.90
11762;DHT22;5938;47.098;15.474;2022-08-27T06:25:33;18.90;99.90
11762;DHT22;5938;47.098;15.474;2022-08-27T06:29:37;19.10;99.90
11762;DHT22;5938;47.098;15.474;2022-08-27T06:33:41;19.40;99.90
11762;DHT22;5938;47.098;15.474;2022-08-27T06:37:47;19.60;99.90
11762;DHT22;5938;47.098;15.474;2022-08-27T06:41:51;19.80;99.90
11762;DHT22;5938;47.098;15.474;2022-08-27T06:45:54;20.10;99.90
11762;DHT22;5938;47.098;15.474;2022-08-27T06:49:58;20.40;99.90
11762;DHT22;5938;47.098;15.474;2022-08-27T06:54:05;20.70;99.90
11762;DHT22;5938;47.098;15.474;2022-08-27T06:58:09;21.00;99.90
11762;DHT22;5938;47.098;15.474;2022-08-27T07:02:13;21.40;99.90
11762;DHT22;5938;47.098;15.474;2022-08-27T07:06:17;21.60;99.90
11762;DHT22;5938;47.098;15.474;2022-08-27T07:10:22;21.80;99.90
11762;DHT22;5938;47.098;15.474;2022-08-27T07:14:25;21.90;99.90
11762;DHT22;5938;47.098;15.474;2022-08-27T07:18:28;22.10;99.90
11762;DHT22;5938;47.098;15.474;2022-08-27T07:22:32;22.40;99.90
11762;DHT22;5938;47.098;15.474;2022-08-27T07:26:40;22.60;99.90
11762;DHT22;5938;47.098;15.474;2022-08-27T07:30:44;22.80;99.90
11762;DHT22;5938;47.098;15.474;2022-08-27T07:34:47;23.10;99.90
11762;DHT22;5938;47.098;15.474;2022-08-27T07:38:51;23.30;99.90
11762;DHT22;5938;47.098;15.474;2022-08-27T07:43:05;23.80;99.90
11762;DHT22;5938;47.098;15.474;2022-08-27T07:47:26;23.90;99.90
11762;DHT22;5938;47.098;15.474;2022-08-27T07:51:30;24.20;99.90
11762;DHT22;5938;47.098;15.474;2022-08-27T07:55:38;24.50;99.90
11762;DHT22;5938;47.098;15.474;2022-08-27T07:59:43;24.60;99.90
11762;DHT22;5938;47.098;15.474;2022-08-27T08:03:46;24.90;99.90
11762;DHT22;5938;47.098;15.474;2022-08-27T08:07:49;25.40;99.80
11762;DHT22;5938;47.098;15.474;2022-08-27T08:11:53;25.50;98.80
11762;DHT22;5938;47.098;15.474;2022-08-27T08:15:58;25.90;98.80
11762;DHT22;5938;47.098;15.474;2022-08-27T08:20:03;26.20;97.40
11762;DHT22;5938;47.098;15.474;2022-08-27T08:24:27;26.50;97.30
11762;DHT22;5938;47.098;15.474;2022-08-27T08:28:30;26.90;96.30
11762;DHT22;5938;47.098;15.474;2022-08-27T08:32:35;27.20;96.00
11762;DHT22;5938;47.098;15.474;2022-08-27T08:36:39;27.50;94.40
11762;DHT22;5938;47.098;15.474;2022-08-27T08:40:44;28.10;93.30
11762;DHT22;5938;47.098;15.474;2022-08-27T08:44:51;29.20;92.10
11762;DHT22;5938;47.098;15.474;2022-08-27T08:49:00;30.90;90.40
11762;DHT22;5938;47.098;15.474;2022-08-27T08:53:10;32.30;85.80
11762;DHT22;5938;47.098;15.474;2022-08-27T08:57:20;32.90;82.60
11762;DHT22;5938;47.098;15.474;2022-08-27T09:01:26;33.30;81.60
11762;DHT22;5938;47.098;15.474;2022-08-27T09:05:31;33.80;79.50
11762;DHT22;5938;47.098;15.474;2022-08-27T09:09:36;35.10;75.30
11762;DHT22;5938;47.098;15.474;2022-08-27T09:13:47;35.10;74.80
11762;DHT22;5938;47.098;15.474;2022-08-27T09:17:51;34.90;74.40
11762;DHT22;5938;47.098;15.474;2022-08-27T09:22:02;35.20;74.30
11762;DHT22;5938;47.098;15.474;2022-08-27T09:26:17;34.90;75.60
11762;DHT22;5938;47.098;15.474;2022-08-27T09:30:23;34.40;74.80
11762;DHT22;5938;47.098;15.474;2022-08-27T09:34:34;36.50;71.90
11762;DHT22;5938;47.098;15.474;2022-08-27T09:38:40;37.20;69.40
11762;DHT22;5938;47.098;15.474;2022-08-27T09:42:52;35.70;70.90
11762;DHT22;5938;47.098;15.474;2022-08-27T09:46:57;37.20;67.80
11762;DHT22;5938;47.098;15.474;2022-08-27T09:51:02;35.80;69.30
11762;DHT22;5938;47.098;15.474;2022-08-27T09:55:10;34.80;72.80
11762;DHT22;5938;47.098;15.474;2022-08-27T09:59:20;35.90;70.40
11762;DHT22;5938;47.098;15.474;2022-08-27T10:03:24;36.20;68.50
11762;DHT22;5938;47.098;15.474;2022-08-27T10:07:42;36.50;67.30
11762;DHT22;5938;47.098;15.474;2022-08-27T10:12:00;35.80;66.80
11762;DHT22;5938;47.098;15.474;2022-08-27T10:16:24;34.00;71.20
11762;DHT22;5938;47.098;15.474;2022-08-27T10:20:37;34.80;71.70
11762;DHT22;5938;47.098;15.474;2022-08-27T10:24:53;35.40;70.40
11762;DHT22;5938;47.098;15.474;2022-08-27T10:29:08;34.90;71.90
11762;DHT22;5938;47.098;15.474;2022-08-27T10:33:19;37.10;67.40
11762;DHT22;5938;47.098;15.474;2022-08-27T10:37:30;38.40;64.30
11762;DHT22;5938;47.098;15.474;2022-08-27T10:41:47;37.50;64.30
11762;DHT22;5938;47.098;15.474;2022-08-27T10:45:58;36.90;65.50
11762;DHT22;5938;47.098;15.474;2022-08-27T10:50:12;37.70;62.80
11762;DHT22;5938;47.098;15.474;2022-08-27T10:54:26;37.30;64.30
11762;DHT22;5938;47.098;15.474;2022-08-27T10:58:40;36.70;61.70
11762;DHT22;5938;47.098;15.474;2022-08-27T11:02:53;36.60;64.90
11762;DHT22;5938;47.098;15.474;2022-08-27T11:06:59;36.90;65.60
11762;DHT22;5938;47.098;15.474;2022-08-27T11:11:19;37.50;65.20
11762;DHT22;5938;47.098;15.474;2022-08-27T11:15:46;38.90;62.70
11762;DHT22;5938;47.098;15.474;2022-08-27T11:19:58;38.30;59.70
11762;DHT22;5938;47.098;15.474;2022-08-27T11:24:10;35.20;66.40
11762;DHT22;5938;47.098;15.474;2022-08-27T11:28:19;35.00;67.60
11762;DHT22;5938;47.098;15.474;2022-08-27T11:32:38;33.40;70.80
11762;DHT22;5938;47.098;15.474;2022-08-27T11:41:53;33.00;73.60
11762;DHT22;5938;47.098;15.474;2022-08-27T11:46:03;31.60;78.30
11762;DHT22;5938;47.098;15.474;2022-08-27T11:50:17;30.30;82.60
11762;DHT22;5938;47.098;15.474;2022-08-27T11:54:25;30.70;82.90
11762;DHT22;5938;47.098;15.474;2022-08-27T11:58:30;30.80;83.00
11762;DHT22;5938;47.098;15.474;2022-08-27T12:02:58;30.50;83.70
11762;DHT22;5938;47.098;15.474;2022-08-27T12:07:23;30.00;84.30
11762;DHT22;5938;47.098;15.474;2022-08-27T12:11:37;30.40;83.40
11762;DHT22;5938;47.098;15.474;2022-08-27T12:15:56;32.50;79.90
11762;DHT22;5938;47.098;15.474;2022-08-27T12:20:10;36.10;71.90
11762;DHT22;5938;47.098;15.474;2022-08-27T12:24:40;38.20;71.80
11762;DHT22;5938;47.098;15.474;2022-08-27T12:28:44;39.50;63.70
11762;DHT22;5938;47.098;15.474;2022-08-27T12:32:50;40.70;58.80
11762;DHT22;5938;47.098;15.474;2022-08-27T12:36:55;40.30;58.50
11762;DHT22;5938;47.098;15.474;2022-08-27T12:40:59;37.90;60.60
11762;DHT22;5938;47.098;15.474;2022-08-27T12:45:06;37.20;62.00
11762;DHT22;5938;47.098;15.474;2022-08-27T12:49:17;35.10;69.20
11762;DHT22;5938;47.098;15.474;2022-08-27T12:53:43;33.90;71.70
11762;DHT22;5938;47.098;15.474;2022-08-27T12:57:51;33.90;71.50
11762;DHT22;5938;47.098;15.474;2022-08-27T13:02:05;34.30;71.00
11762;DHT22;5938;47.098;15.474;2022-08-27T13:06:19;34.30;71.90
11762;DHT22;5938;47.098;15.474;2022-08-27T13:10:26;33.50;75.80
11762;DHT22;5938;47.098;15.474;2022-08-27T13:14:35;31.90;84.70
11762;DHT22;5938;47.098;15.474;2022-08-27T13:18:39;30.60;90.10
11762;DHT22;5938;47.098;15.474;2022-08-27T13:22:44;32.10;88.10
11762;DHT22;5938;47.098;15.474;2022-08-27T13:26:50;33.30;79.40
11762;DHT22;5938;47.098;15.474;2022-08-27T13:30:56;31.50;77.50
11762;DHT22;5938;47.098;15.474;2022-08-27T13:35:01;28.10;87.10
11762;DHT22;5938;47.098;15.474;2022-08-27T13:39:06;28.00;88.50
11762;DHT22;5938;47.098;15.474;2022-08-27T13:43:14;27.80;87.60
11762;DHT22;5938;47.098;15.474;2022-08-27T13:47:20;27.10;88.70
11762;DHT22;5938;47.098;15.474;2022-08-27T13:51:27;25.50;92.00
11762;DHT22;5938;47.098;15.474;2022-08-27T13:55:33;25.10;93.00
11762;DHT22;5938;47.098;15.474;2022-08-27T13:59:40;24.90;92.90
11762;DHT22;5938;47.098;15.474;2022-08-27T14:03:48;25.10;93.00
11762;DHT22;5938;47.098;15.474;2022-08-27T14:07:54;25.20;93.10
11762;DHT22;5938;47.098;15.474;2022-08-27T14:12:04;25.00;93.40
11762;DHT22;5938;47.098;15.474;2022-08-27T14:16:21;24.90;94.10
11762;DHT22;5938;47.098;15.474;2022-08-27T14:20:26;24.70;94.60
11762;DHT22;5938;47.098;15.474;2022-08-27T14:24:29;24.40;95.50
11762;DHT22;5938;47.098;15.474;2022-08-27T14:28:34;24.10;96.70
11762;DHT22;5938;47.098;15.474;2022-08-27T14:32:40;24.10;96.40
11762;DHT22;5938;47.098;15.474;2022-08-27T14:36:46;24.20;96.30
11762;DHT22;5938;47.098;15.474;2022-08-27T14:40:55;24.50;95.30
11762;DHT22;5938;47.098;15.474;2022-08-27T14:45:01;24.50;95.10
11762;DHT22;5938;47.098;15.474;2022-08-27T14:49:08;23.40;95.60
11762;DHT22;5938;47.098;15.474;2022-08-27T14:53:13;23.00;96.90
11762;DHT22;5938;47.098;15.474;2022-08-27T14:57:16;22.80;97.50
11762;DHT22;5938;47.098;15.474;2022-08-27T15:01:23;22.80;97.90
11762;DHT22;5938;47.098;15.474;2022-08-27T15:05:27;22.40;99.20
11762;DHT22;5938;47.098;15.474;2022-08-27T15:09:32;21.90;99.90
11762;DHT22;5938;47.098;15.474;2022-08-27T15:13:36;21.50;99.90
11762;DHT22;5938;47.098;15.474;2022-08-27T15:17:41;21.20;99.90
11762;DHT22;5938;47.098;15.474;2022-08-27T15:21:47;20.20;99.90
11762;DHT22;5938;47.098;15.474;2022-08-27T15:25:51;19.20;99.90
11762;DHT22;5938;47.098;15.474;2022-08-27T15:29:54;19.00;99.90
11762;DHT22;5938;47.098;15.474;2022-08-27T15:33:59;18.80;99.90
11762;DHT22;5938;47.098;15.474;2022-08-27T15:38:02;18.70;99.90
11762;DHT22;5938;47.098;15.474;2022-08-27T15:42:06;18.60;99.90
11762;DHT22;5938;47.098;15.474;2022-08-27T15:46:10;18.60;99.90
11762;DHT22;5938;47.098;15.474;2022-08-27T15:50:15;18.60;99.90
11762;DHT22;5938;47.098;15.474;2022-08-27T15:54:18;18.50;99.90
11762;DHT22;5938;47.098;15.474;2022-08-27T15:58:22;18.30;99.90
11762;DHT22;5938;47.098;15.474;2022-08-27T16:02:29;18.20;99.90
11762;DHT22;5938;47.098;15.474;2022-08-27T16:06:34;18.10;99.90
11762;DHT22;5938;47.098;15.474;2022-08-27T16:10:38;18.20;99.90
11762;DHT22;5938;47.098;15.474;2022-08-27T16:14:41;18.10;99.90
11762;DHT22;5938;47.098;15.474;2022-08-27T16:18:47;18.20;99.90
11762;DHT22;5938;47.098;15.474;2022-08-27T16:22:52;18.30;99.90
11762;DHT22;5938;47.098;15.474;2022-08-27T16:26:55;18.40;99.90
11762;DHT22;5938;47.098;15.474;2022-08-27T16:30:59;18.40;99.90
11762;DHT22;5938;47.098;15.474;2022-08-27T16:35:04;18.30;99.90
11762;DHT22;5938;47.098;15.474;2022-08-27T16:39:09;18.30;99.90
11762;DHT22;5938;47.098;15.474;2022-08-27T16:43:13;18.30;99.90
11762;DHT22;5938;47.098;15.474;2022-08-27T16:47:17;18.10;99.90
11762;DHT22;5938;47.098;15.474;2022-08-27T16:51:23;18.10;99.90
11762;DHT22;5938;47.098;15.474;2022-08-27T16:55:29;18.00;99.90
11762;DHT22;5938;47.098;15.474;2022-08-27T16:59:33;17.90;99.90
11762;DHT22;5938;47.098;15.474;2022-08-27T17:03:40;17.80;99.90
11762;DHT22;5938;47.098;15.474;2022-08-27T17:08:04;17.80;99.90
11762;DHT22;5938;47.098;15.474;2022-08-27T17:12:15;18.00;99.90
11762;DHT22;5938;47.098;15.474;2022-08-27T17:16:23;18.00;99.90
11762;DHT22;5938;47.098;15.474;2022-08-27T17:20:27;18.00;99.90
11762;DHT22;5938;47.098;15.474;2022-08-27T17:24:32;18.00;99.90
11762;DHT22;5938;47.098;15.474;2022-08-27T17:28:37;18.00;99.90
11762;DHT22;5938;47.098;15.474;2022-08-27T17:32:43;18.00;99.90
11762;DHT22;5938;47.098;15.474;2022-08-27T17:36:46;18.00;99.90
11762;DHT22;5938;47.098;15.474;2022-08-27T17:40:52;17.90;99.90
11762;DHT22;5938;47.098;15.474;2022-08-27T17:44:58;17.90;99.90
11762;DHT22;5938;47.098;15.474;2022-08-27T17:49:02;17.90;99.90
11762;DHT22;5938;47.098;15.474;2022-08-27T17:53:08;17.90;99.90
11762;DHT22;5938;47.098;15.474;2022-08-27T17:57:15;17.90;99.90
11762;DHT22;5938;47.098;15.474;2022-08-27T18:01:24;17.90;99.90
11762;DHT22;5938;47.098;15.474;2022-08-27T18:05:30;17.90;99.90
11762;DHT22;5938;47.098;15.474;2022-08-27T18:09:35;17.90;99.90
11762;DHT22;5938;47.098;15.474;2022-08-27T18:13:42;17.80;99.90
11762;DHT22;5938;47.098;15.474;2022-08-27T18:17:53;17.90;99.90
11762;DHT22;5938;47.098;15.474;2022-08-27T18:22:01;17.90;99.90
11762;DHT22;5938;47.098;15.474;2022-08-27T18:26:12;17.90;99.90
11762;DHT22;5938;47.098;15.474;2022-08-27T18:30:18;17.90;99.90
11762;DHT22;5938;47.098;15.474;2022-08-27T18:34:24;17.90;99.90
11762;DHT22;5938;47.098;15.474;2022-08-27T18:38:30;17.90;99.90
11762;DHT22;5938;47.098;15.474;2022-08-27T18:42:34;17.90;99.90
11762;DHT22;5938;47.098;15.474;2022-08-27T18:46:40;17.90;99.90
11762;DHT22;5938;47.098;15.474;2022-08-27T18:50:56;17.90;99.90
11762;DHT22;5938;47.098;15.474;2022-08-27T18:55:06;17.90;99.90
11762;DHT22;5938;47.098;15.474;2022-08-27T18:59:11;17.80;99.90
11762;DHT22;5938;47.098;15.474;2022-08-27T19:03:20;17.90;99.90
11762;DHT22;5938;47.098;15.474;2022-08-27T19:07:28;17.90;99.90
11762;DHT22;5938;47.098;15.474;2022-08-27T19:11:34;17.80;99.90
11762;DHT22;5938;47.098;15.474;2022-08-27T19:15:41;17.80;99.90
11762;DHT22;5938;47.098;15.474;2022-08-27T19:19:49;17.90;99.90
11762;DHT22;5938;47.098;15.474;2022-08-27T19:23:56;17.80;99.90
11762;DHT22;5938;47.098;15.474;2022-08-27T19:28:01;17.80;99.90
11762;DHT22;5938;47.098;15.474;2022-08-27T19:32:07;17.80;99.90
11762;DHT22;5938;47.098;15.474;2022-08-27T19:36:22;17.70;99.90
11762;DHT22;5938;47.098;15.474;2022-08-27T19:40:30;17.70;99.90
11762;DHT22;5938;47.098;15.474;2022-08-27T19:44:33;17.70;99.90
11762;DHT22;5938;47.098;15.474;2022-08-27T19:48:37;17.70;99.90
11762;DHT22;5938;47.098;15.474;2022-08-27T19:52:40;17.70;99.90
11762;DHT22;5938;47.098;15.474;2022-08-27T19:56:45;17.60;99.90
11762;DHT22;5938;47.098;15.474;2022-08-27T20:00:49;17.60;99.90
11762;DHT22;5938;47.098;15.474;2022-08-27T20:04:53;17.60;99.90
11762;DHT22;5938;47.098;15.474;2022-08-27T20:09:16;17.60;99.90
11762;DHT22;5938;47.098;15.474;2022-08-27T20:13:23;17.60;99.90
11762;DHT22;5938;47.098;15.474;2022-08-27T20:17:34;17.60;99.90
11762;DHT22;5938;47.098;15.474;2022-08-27T20:21:39;17.50;99.90
11762;DHT22;5938;47.098;15.474;2022-08-27T20:25:42;17.50;99.90
11762;DHT22;5938;47.098;15.474;2022-08-27T20:29:48;17.50;99.90
11762;DHT22;5938;47.098;15.474;2022-08-27T20:33:52;17.50;99.90
11762;DHT22;5938;47.098;15.474;2022-08-27T20:37:56;17.50;99.90
11762;DHT22;5938;47.098;15.474;2022-08-27T20:42:00;17.50;99.90
11762;DHT22;5938;47.098;15.474;2022-08-27T20:46:28;17.50;99.90
11762;DHT22;5938;47.098;15.474;2022-08-27T20:50:53;17.40;99.90
11762;DHT22;5938;47.098;15.474;2022-08-27T20:54:56;17.40;99.90
11762;DHT22;5938;47.098;15.474;2022-08-27T20:58:59;17.30;99.90
11762;DHT22;5938;47.098;15.474;2022-08-27T21:03:22;17.40;99.90
11762;DHT22;5938;47.098;15.474;2022-08-27T21:07:25;17.30;99.90
11762;DHT22;5938;47.098;15.474;2022-08-27T21:11:28;17.30;99.90
11762;DHT22;5938;47.098;15.474;2022-08-27T21:15:47;17.30;99.90
11762;DHT22;5938;47.098;15.474;2022-08-27T21:19:58;17.30;99.90
11762;DHT22;5938;47.098;15.474;2022-08-27T21:24:03;17.30;99.90
11762;DHT22;5938;47.098;15.474;2022-08-27T21:28:06;17.30;99.90
11762;DHT22;5938;47.098;15.474;2022-08-27T21:32:10;17.30;99.90
11762;DHT22;5938;47.098;15.474;2022-08-27T21:36:14;17.20;99.90
11762;DHT22;5938;47.098;15.474;2022-08-27T21:40:18;17.20;99.90
11762;DHT22;5938;47.098;15.474;2022-08-27T21:44:21;17.40;99.90
11762;DHT22;5938;47.098;15.474;2022-08-27T21:48:25;17.30;99.90
11762;DHT22;5938;47.098;15.474;2022-08-27T21:52:30;17.30;99.90
11762;DHT22;5938;47.098;15.474;2022-08-27T21:56:33;17.30;99.90
11762;DHT22;5938;47.098;15.474;2022-08-27T22:00:40;17.30;99.90
11762;DHT22;5938;47.098;15.474;2022-08-27T22:04:45;17.20;99.90
11762;DHT22;5938;47.098;15.474;2022-08-27T22:08:49;17.10;99.90
11762;DHT22;5938;47.098;15.474;2022-08-27T22:12:53;17.10;99.90
11762;DHT22;5938;47.098;15.474;2022-08-27T22:17:01;17.10;99.90
11762;DHT22;5938;47.098;15.474;2022-08-27T22:21:05;17.10;99.90
11762;DHT22;5938;47.098;15.474;2022-08-27T22:25:10;17.00;99.90
11762;DHT22;5938;47.098;15.474;2022-08-27T22:29:13;17.00;99.90
11762;DHT22;5938;47.098;15.474;2022-08-27T22:33:17;17.00;99.90
11762;DHT22;5938;47.098;15.474;2022-08-27T22:37:20;17.00;99.90
11762;DHT22;5938;47.098;15.474;2022-08-27T22:41:25;17.00;99.90
11762;DHT22;5938;47.098;15.474;2022-08-27T22:45:28;16.90;99.90
11762;DHT22;5938;47.098;15.474;2022-08-27T22:49:31;17.00;99.90
11762;DHT22;5938;47.098;15.474;2022-08-27T22:53:35;17.00;99.90
11762;DHT22;5938;47.098;15.474;2022-08-27T22:57:41;16.90;99.90
11762;DHT22;5938;47.098;15.474;2022-08-27T23:01:45;16.80;99.90
11762;DHT22;5938;47.098;15.474;2022-08-27T23:05:48;16.70;99.90
11762;DHT22;5938;47.098;15.474;2022-08-27T23:09:51;16.60;99.90
11762;DHT22;5938;47.098;15.474;2022-08-27T23:13:56;16.60;99.90
11762;DHT22;5938;47.098;15.474;2022-08-27T23:18:00;16.60;99.90
11762;DHT22;5938;47.098;15.474;2022-08-27T23:22:03;16.50;99.90
11762;DHT22;5938;47.098;15.474;2022-08-27T23:26:08;16.40;99.90
11762;DHT22;5938;47.098;15.474;2022-08-27T23:30:30;16.40;99.90
11762;DHT22;5938;47.098;15.474;2022-08-27T23:34:33;16.40;99.90
11762;DHT22;5938;47.098;15.474;2022-08-27T23:38:37;16.40;99.90
11762;DHT22;5938;47.098;15.474;2022-08-27T23:42:41;16.40;99.90
11762;DHT22;5938;47.098;15.474;2022-08-27T23:46:46;16.40;99.90
11762;DHT22;5938;47.098;15.474;2022-08-27T23:50:51;16.50;99.90
11762;DHT22;5938;47.098;15.474;2022-08-27T23:54:54;16.50;99.90
11762;DHT22;5938;47.098;15.474;2022-08-27T23:58:57;16.50;99.90
